sensor_id;sensor_type;location;lat;lon;timestamp;P1;durP1;ratioP1;P2;durP2;ratioP2
5555;SDS011;2801;50.972;7.856;2022-08-04T00:01:05;4.57;;;2.90;;
5555;SDS011;2801;50.972;7.856;2022-08-04T00:03:42;4.55;;;3.10;;
5555;SDS011;2801;50.972;7.856;2022-08-04T00:06:28;7.03;;;3.30;;
5555;SDS011;2801;50.972;7.856;2022-08-04T00:09:23;5.00;;;3.25;;
5555;SDS011;2801;50.972;7.856;2022-08-04T00:12:09;4.70;;;3.13;;
5555;SDS011;2801;50.972;7.856;2022-08-04T00:14:40;4.90;;;3.42;;
5555;SDS011;2801;50.972;7.856;2022-08-04T00:17:19;8.35;;;3.33;;
5555;SDS011;2801;50.972;7.856;2022-08-04T00:19:54;5.70;;;3.33;;
5555;SDS011;2801;50.972;7.856;2022-08-04T00:22:27;6.68;;;3.13;;
5555;SDS011;2801;50.972;7.856;2022-08-04T00:24:57;5.00;;;3.08;;
5555;SDS011;2801;50.972;7.856;2022-08-04T00:27:31;6.55;;;3.42;;
5555;SDS011;2801;50.972;7.856;2022-08-04T00:30:01;4.85;;;3.42;;
5555;SDS011;2801;50.972;7.856;2022-08-04T00:32:30;5.18;;;3.50;;
5555;SDS011;2801;50.972;7.856;2022-08-04T00:34:59;5.82;;;3.25;;
5555;SDS011;2801;50.972;7.856;2022-08-04T00:37:27;4.85;;;3.40;;
5555;SDS011;2801;50.972;7.856;2022-08-04T00:39:54;7.70;;;3.35;;
5555;SDS011;2801;50.972;7.856;2022-08-04T00:45:16;5.47;;;3.15;;
5555;SDS011;2801;50.972;7.856;2022-08-04T00:48:33;6.40;;;3.15;;
5555;SDS011;2801;50.972;7.856;2022-08-04T00:51:28;6.40;;;3.33;;
5555;SDS011;2801;50.972;7.856;2022-08-04T01:00:23;5.43;;;3.22;;
5555;SDS011;2801;50.972;7.856;2022-08-04T01:03:07;5.22;;;3.20;;
5555;SDS011;2801;50.972;7.856;2022-08-04T01:28:59;6.93;;;3.42;;
5555;SDS011;2801;50.972;7.856;2022-08-04T01:31:54;4.53;;;3.55;;
5555;SDS011;2801;50.972;7.856;2022-08-04T01:34:46;5.03;;;3.40;;
5555;SDS011;2801;50.972;7.856;2022-08-04T01:40:07;4.15;;;3.10;;
5555;SDS011;2801;50.972;7.856;2022-08-04T01:42:35;5.47;;;3.70;;
5555;SDS011;2801;50.972;7.856;2022-08-04T01:45:06;4.85;;;3.42;;
5555;SDS011;2801;50.972;7.856;2022-08-04T01:47:37;5.60;;;3.85;;
5555;SDS011;2801;50.972;7.856;2022-08-04T01:50:18;5.53;;;3.50;;
5555;SDS011;2801;50.972;7.856;2022-08-04T01:52:47;8.23;;;4.10;;
5555;SDS011;2801;50.972;7.856;2022-08-04T01:55:18;5.78;;;3.80;;
5555;SDS011;2801;50.972;7.856;2022-08-04T01:57:49;4.35;;;3.60;;
5555;SDS011;2801;50.972;7.856;2022-08-04T02:00:22;4.95;;;3.25;;
5555;SDS011;2801;50.972;7.856;2022-08-04T02:02:53;4.93;;;3.20;;
5555;SDS011;2801;50.972;7.856;2022-08-04T02:05:22;5.78;;;3.70;;
5555;SDS011;2801;50.972;7.856;2022-08-04T02:08:29;5.05;;;3.58;;
5555;SDS011;2801;50.972;7.856;2022-08-04T02:11:15;5.60;;;3.75;;
5555;SDS011;2801;50.972;7.856;2022-08-04T02:13:53;4.30;;;3.30;;
5555;SDS011;2801;50.972;7.856;2022-08-04T02:16:35;7.07;;;3.55;;
5555;SDS011;2801;50.972;7.856;2022-08-04T02:22:18;5.13;;;3.38;;
5555;SDS011;2801;50.972;7.856;2022-08-04T02:24:54;5.32;;;3.47;;
5555;SDS011;2801;50.972;7.856;2022-08-04T02:27:31;4.85;;;3.35;;
5555;SDS011;2801;50.972;7.856;2022-08-04T02:33:17;5.00;;;3.38;;
5555;SDS011;2801;50.972;7.856;2022-08-04T02:35:56;4.20;;;3.40;;
5555;SDS011;2801;50.972;7.856;2022-08-04T02:38:38;6.13;;;3.67;;
5555;SDS011;2801;50.972;7.856;2022-08-04T02:41:15;4.82;;;3.20;;
5555;SDS011;2801;50.972;7.856;2022-08-04T02:43:46;6.25;;;3.72;;
5555;SDS011;2801;50.972;7.856;2022-08-04T02:46:18;6.07;;;3.80;;
5555;SDS011;2801;50.972;7.856;2022-08-04T02:48:48;4.20;;;3.30;;
5555;SDS011;2801;50.972;7.856;2022-08-04T02:51:22;5.95;;;3.50;;
5555;SDS011;2801;50.972;7.856;2022-08-04T02:53:55;5.95;;;3.50;;
5555;SDS011;2801;50.972;7.856;2022-08-04T02:56:27;5.45;;;3.38;;
5555;SDS011;2801;50.972;7.856;2022-08-04T02:59:02;4.60;;;3.00;;
5555;SDS011;2801;50.972;7.856;2022-08-04T03:01:35;6.70;;;3.42;;
5555;SDS011;2801;50.972;7.856;2022-08-04T03:04:28;5.47;;;3.20;;
5555;SDS011;2801;50.972;7.856;2022-08-04T03:16:16;5.15;;;4.00;;
5555;SDS011;2801;50.972;7.856;2022-08-04T03:45:21;5.28;;;3.50;;
5555;SDS011;2801;50.972;7.856;2022-08-04T03:48:30;6.32;;;3.60;;
5555;SDS011;2801;50.972;7.856;2022-08-04T03:51:32;7.55;;;3.90;;
5555;SDS011;2801;50.972;7.856;2022-08-04T04:01:37;5.93;;;4.15;;
5555;SDS011;2801;50.972;7.856;2022-08-04T04:22:28;5.35;;;3.67;;
5555;SDS011;2801;50.972;7.856;2022-08-04T04:25:33;6.15;;;4.45;;
5555;SDS011;2801;50.972;7.856;2022-08-04T04:33:57;5.28;;;3.90;;
5555;SDS011;2801;50.972;7.856;2022-08-04T04:36:48;4.90;;;3.65;;
5555;SDS011;2801;50.972;7.856;2022-08-04T04:45:33;6.35;;;4.15;;
5555;SDS011;2801;50.972;7.856;2022-08-04T04:48:35;4.57;;;3.78;;
5555;SDS011;2801;50.972;7.856;2022-08-04T04:51:21;5.65;;;4.22;;
5555;SDS011;2801;50.972;7.856;2022-08-04T04:54:10;6.10;;;4.20;;
5555;SDS011;2801;50.972;7.856;2022-08-04T04:57:02;5.82;;;4.22;;
5555;SDS011;2801;50.972;7.856;2022-08-04T04:59:44;5.78;;;3.70;;
5555;SDS011;2801;50.972;7.856;2022-08-04T05:14:09;4.93;;;3.88;;
5555;SDS011;2801;50.972;7.856;2022-08-04T05:17:29;6.57;;;4.32;;
5555;SDS011;2801;50.972;7.856;2022-08-04T05:20:12;6.28;;;4.43;;
5555;SDS011;2801;50.972;7.856;2022-08-04T05:22:53;5.63;;;4.22;;
5555;SDS011;2801;50.972;7.856;2022-08-04T05:25:26;4.63;;;3.90;;
5555;SDS011;2801;50.972;7.856;2022-08-04T05:28:04;6.13;;;4.32;;
5555;SDS011;2801;50.972;7.856;2022-08-04T05:30:40;5.35;;;3.75;;
5555;SDS011;2801;50.972;7.856;2022-08-04T05:33:14;4.93;;;3.88;;
5555;SDS011;2801;50.972;7.856;2022-08-04T05:35:55;4.63;;;3.42;;
5555;SDS011;2801;50.972;7.856;2022-08-04T05:38:46;4.70;;;3.70;;
5555;SDS011;2801;50.972;7.856;2022-08-04T05:41:18;5.05;;;3.78;;
5555;SDS011;2801;50.972;7.856;2022-08-04T05:43:47;5.70;;;3.58;;
5555;SDS011;2801;50.972;7.856;2022-08-04T05:46:15;5.70;;;3.60;;
5555;SDS011;2801;50.972;7.856;2022-08-04T05:48:44;6.30;;;3.80;;
5555;SDS011;2801;50.972;7.856;2022-08-04T05:51:12;6.53;;;3.90;;
5555;SDS011;2801;50.972;7.856;2022-08-04T05:53:41;6.32;;;3.40;;
5555;SDS011;2801;50.972;7.856;2022-08-04T05:56:11;6.57;;;3.72;;
5555;SDS011;2801;50.972;7.856;2022-08-04T05:58:40;6.70;;;4.20;;
5555;SDS011;2801;50.972;7.856;2022-08-04T06:01:09;5.00;;;3.70;;
5555;SDS011;2801;50.972;7.856;2022-08-04T06:03:38;4.80;;;3.38;;
5555;SDS011;2801;50.972;7.856;2022-08-04T06:06:06;5.05;;;4.03;;
5555;SDS011;2801;50.972;7.856;2022-08-04T06:08:36;5.45;;;3.85;;
5555;SDS011;2801;50.972;7.856;2022-08-04T06:11:04;10.00;;;4.30;;
5555;SDS011;2801;50.972;7.856;2022-08-04T06:13:47;4.10;;;3.70;;
5555;SDS011;2801;50.972;7.856;2022-08-04T06:16:23;6.50;;;3.58;;
5555;SDS011;2801;50.972;7.856;2022-08-04T06:18:58;5.90;;;3.45;;
5555;SDS011;2801;50.972;7.856;2022-08-04T06:21:52;7.85;;;3.70;;
5555;SDS011;2801;50.972;7.856;2022-08-04T06:24:22;4.65;;;3.53;;
5555;SDS011;2801;50.972;7.856;2022-08-04T06:26:52;5.00;;;3.78;;
5555;SDS011;2801;50.972;7.856;2022-08-04T06:29:21;5.43;;;3.58;;
5555;SDS011;2801;50.972;7.856;2022-08-04T06:32:02;4.63;;;3.63;;
5555;SDS011;2801;50.972;7.856;2022-08-04T06:34:57;4.53;;;3.40;;
5555;SDS011;2801;50.972;7.856;2022-08-04T06:37:27;6.82;;;3.63;;
5555;SDS011;2801;50.972;7.856;2022-08-04T06:40:09;4.18;;;3.60;;
5555;SDS011;2801;50.972;7.856;2022-08-04T06:42:58;4.65;;;3.28;;
5555;SDS011;2801;50.972;7.856;2022-08-04T06:45:32;5.25;;;3.47;;
5555;SDS011;2801;50.972;7.856;2022-08-04T06:48:03;6.38;;;3.72;;
5555;SDS011;2801;50.972;7.856;2022-08-04T06:50:35;5.82;;;3.80;;
5555;SDS011;2801;50.972;7.856;2022-08-04T06:53:24;5.32;;;3.63;;
5555;SDS011;2801;50.972;7.856;2022-08-04T06:55:52;3.83;;;3.42;;
5555;SDS011;2801;50.972;7.856;2022-08-04T06:58:21;6.07;;;3.70;;
5555;SDS011;2801;50.972;7.856;2022-08-04T07:00:50;5.13;;;3.42;;
5555;SDS011;2801;50.972;7.856;2022-08-04T07:03:18;4.38;;;2.95;;
5555;SDS011;2801;50.972;7.856;2022-08-04T07:05:47;5.50;;;3.30;;
5555;SDS011;2801;50.972;7.856;2022-08-04T07:08:16;3.88;;;3.10;;
5555;SDS011;2801;50.972;7.856;2022-08-04T07:10:44;3.53;;;2.70;;
5555;SDS011;2801;50.972;7.856;2022-08-04T07:13:11;2.97;;;2.72;;
5555;SDS011;2801;50.972;7.856;2022-08-04T07:15:48;3.05;;;2.70;;
5555;SDS011;2801;50.972;7.856;2022-08-04T07:18:16;5.00;;;2.78;;
5555;SDS011;2801;50.972;7.856;2022-08-04T07:20:43;4.10;;;2.95;;
5555;SDS011;2801;50.972;7.856;2022-08-04T07:23:12;3.88;;;2.80;;
5555;SDS011;2801;50.972;7.856;2022-08-04T07:25:50;4.40;;;2.63;;
5555;SDS011;2801;50.972;7.856;2022-08-04T07:28:36;2.55;;;2.25;;
5555;SDS011;2801;50.972;7.856;2022-08-04T07:31:04;4.57;;;2.42;;
5555;SDS011;2801;50.972;7.856;2022-08-04T07:33:41;3.25;;;2.63;;
5555;SDS011;2801;50.972;7.856;2022-08-04T07:36:29;2.53;;;2.22;;
5555;SDS011;2801;50.972;7.856;2022-08-04T07:39:15;3.97;;;2.72;;
5555;SDS011;2801;50.972;7.856;2022-08-04T07:41:54;2.85;;;2.40;;
5555;SDS011;2801;50.972;7.856;2022-08-04T07:44:24;3.10;;;2.55;;
5555;SDS011;2801;50.972;7.856;2022-08-04T07:46:52;3.83;;;2.65;;
5555;SDS011;2801;50.972;7.856;2022-08-04T07:49:19;4.70;;;2.45;;
5555;SDS011;2801;50.972;7.856;2022-08-04T07:52:07;2.63;;;2.42;;
5555;SDS011;2801;50.972;7.856;2022-08-04T07:54:35;3.58;;;2.50;;
5555;SDS011;2801;50.972;7.856;2022-08-04T07:57:03;7.55;;;2.25;;
5555;SDS011;2801;50.972;7.856;2022-08-04T07:59:31;2.90;;;2.50;;
5555;SDS011;2801;50.972;7.856;2022-08-04T08:01:58;5.13;;;3.15;;
5555;SDS011;2801;50.972;7.856;2022-08-04T08:04:27;3.80;;;2.20;;
5555;SDS011;2801;50.972;7.856;2022-08-04T08:06:58;4.85;;;2.10;;
5555;SDS011;2801;50.972;7.856;2022-08-04T08:09:25;3.10;;;2.28;;
5555;SDS011;2801;50.972;7.856;2022-08-04T08:11:52;3.95;;;2.05;;
5555;SDS011;2801;50.972;7.856;2022-08-04T08:14:40;4.93;;;3.65;;
5555;SDS011;2801;50.972;7.856;2022-08-04T08:17:08;4.22;;;2.30;;
5555;SDS011;2801;50.972;7.856;2022-08-04T08:19:35;2.80;;;2.15;;
5555;SDS011;2801;50.972;7.856;2022-08-04T08:22:03;2.47;;;2.08;;
5555;SDS011;2801;50.972;7.856;2022-08-04T08:24:33;2.78;;;2.10;;
5555;SDS011;2801;50.972;7.856;2022-08-04T08:27:01;4.38;;;2.25;;
5555;SDS011;2801;50.972;7.856;2022-08-04T08:29:30;4.68;;;2.38;;
5555;SDS011;2801;50.972;7.856;2022-08-04T08:32:01;2.40;;;2.20;;
5555;SDS011;2801;50.972;7.856;2022-08-04T08:34:34;3.22;;;2.20;;
5555;SDS011;2801;50.972;7.856;2022-08-04T08:37:06;2.42;;;2.05;;
5555;SDS011;2801;50.972;7.856;2022-08-04T08:55:48;3.15;;;2.75;;
5555;SDS011;2801;50.972;7.856;2022-08-04T09:02:25;3.05;;;2.00;;
5555;SDS011;2801;50.972;7.856;2022-08-04T09:08:37;2.20;;;1.80;;
5555;SDS011;2801;50.972;7.856;2022-08-04T09:11:15;1.52;;;1.30;;
5555;SDS011;2801;50.972;7.856;2022-08-04T09:13:49;2.65;;;1.83;;
5555;SDS011;2801;50.972;7.856;2022-08-04T09:16:48;1.80;;;1.60;;
5555;SDS011;2801;50.972;7.856;2022-08-04T09:19:32;1.85;;;1.73;;
5555;SDS011;2801;50.972;7.856;2022-08-04T09:24:58;1.75;;;1.60;;
5555;SDS011;2801;50.972;7.856;2022-08-04T09:27:36;4.82;;;1.83;;
5555;SDS011;2801;50.972;7.856;2022-08-04T09:30:22;1.80;;;1.65;;
5555;SDS011;2801;50.972;7.856;2022-08-04T09:33:06;2.70;;;1.83;;
5555;SDS011;2801;50.972;7.856;2022-08-04T09:36:12;2.03;;;1.58;;
5555;SDS011;2801;50.972;7.856;2022-08-04T09:39:07;8.02;;;1.48;;
5555;SDS011;2801;50.972;7.856;2022-08-04T09:44:50;4.22;;;1.80;;
5555;SDS011;2801;50.972;7.856;2022-08-04T09:47:38;2.38;;;1.40;;
5555;SDS011;2801;50.972;7.856;2022-08-04T09:50:29;2.15;;;1.20;;
5555;SDS011;2801;50.972;7.856;2022-08-04T09:56:08;3.38;;;1.45;;
5555;SDS011;2801;50.972;7.856;2022-08-04T10:01:32;4.63;;;1.48;;
5555;SDS011;2801;50.972;7.856;2022-08-04T10:04:02;2.30;;;1.40;;
5555;SDS011;2801;50.972;7.856;2022-08-04T10:06:44;1.67;;;1.40;;
5555;SDS011;2801;50.972;7.856;2022-08-04T10:09:42;2.38;;;1.35;;
5555;SDS011;2801;50.972;7.856;2022-08-04T10:15:32;2.50;;;1.73;;
5555;SDS011;2801;50.972;7.856;2022-08-04T10:24:52;1.55;;;1.20;;
5555;SDS011;2801;50.972;7.856;2022-08-04T10:27:29;1.50;;;1.38;;
5555;SDS011;2801;50.972;7.856;2022-08-04T10:30:15;1.45;;;1.33;;
5555;SDS011;2801;50.972;7.856;2022-08-04T10:35:22;1.30;;;1.20;;
5555;SDS011;2801;50.972;7.856;2022-08-04T10:40:59;6.18;;;1.30;;
5555;SDS011;2801;50.972;7.856;2022-08-04T10:46:43;2.67;;;1.10;;
5555;SDS011;2801;50.972;7.856;2022-08-04T10:49:42;1.50;;;1.17;;
5555;SDS011;2801;50.972;7.856;2022-08-04T10:52:37;2.88;;;1.15;;
5555;SDS011;2801;50.972;7.856;2022-08-04T10:55:48;2.50;;;1.02;;
5555;SDS011;2801;50.972;7.856;2022-08-04T10:58:52;1.50;;;1.25;;
5555;SDS011;2801;50.972;7.856;2022-08-04T11:01:28;3.20;;;1.40;;
5555;SDS011;2801;50.972;7.856;2022-08-04T11:07:11;3.13;;;1.15;;
5555;SDS011;2801;50.972;7.856;2022-08-04T11:09:41;2.28;;;1.25;;
5555;SDS011;2801;50.972;7.856;2022-08-04T11:12:13;2.55;;;1.50;;
5555;SDS011;2801;50.972;7.856;2022-08-04T11:15:07;2.17;;;1.38;;
5555;SDS011;2801;50.972;7.856;2022-08-04T11:17:46;3.42;;;1.20;;
5555;SDS011;2801;50.972;7.856;2022-08-04T11:23:14;3.33;;;1.38;;
5555;SDS011;2801;50.972;7.856;2022-08-04T11:25:59;1.52;;;1.10;;
5555;SDS011;2801;50.972;7.856;2022-08-04T11:28:40;1.60;;;1.40;;
5555;SDS011;2801;50.972;7.856;2022-08-04T11:31:34;3.13;;;1.38;;
5555;SDS011;2801;50.972;7.856;2022-08-04T11:34:18;1.10;;;0.98;;
5555;SDS011;2801;50.972;7.856;2022-08-04T11:39:44;2.65;;;1.20;;
5555;SDS011;2801;50.972;7.856;2022-08-04T11:42:18;1.38;;;1.17;;
5555;SDS011;2801;50.972;7.856;2022-08-04T11:45:06;1.90;;;1.27;;
5555;SDS011;2801;50.972;7.856;2022-08-04T11:47:57;2.83;;;1.20;;
5555;SDS011;2801;50.972;7.856;2022-08-04T11:50:53;1.83;;;1.25;;
5555;SDS011;2801;50.972;7.856;2022-08-04T11:53:23;2.67;;;1.60;;
5555;SDS011;2801;50.972;7.856;2022-08-04T11:56:03;1.77;;;1.17;;
5555;SDS011;2801;50.972;7.856;2022-08-04T11:58:36;1.40;;;1.30;;
5555;SDS011;2801;50.972;7.856;2022-08-04T12:06:43;2.40;;;1.10;;
5555;SDS011;2801;50.972;7.856;2022-08-04T12:15:28;2.22;;;0.95;;
5555;SDS011;2801;50.972;7.856;2022-08-04T12:20:56;2.95;;;1.20;;
5555;SDS011;2801;50.972;7.856;2022-08-04T12:23:30;2.08;;;1.23;;
5555;SDS011;2801;50.972;7.856;2022-08-04T12:26:07;1.70;;;1.40;;
5555;SDS011;2801;50.972;7.856;2022-08-04T12:28:42;1.27;;;1.05;;
5555;SDS011;2801;50.972;7.856;2022-08-04T12:31:47;2.85;;;1.30;;
5555;SDS011;2801;50.972;7.856;2022-08-04T12:34:46;1.65;;;1.30;;
5555;SDS011;2801;50.972;7.856;2022-08-04T12:40:05;2.13;;;1.10;;
5555;SDS011;2801;50.972;7.856;2022-08-04T12:42:57;3.85;;;1.10;;
5555;SDS011;2801;50.972;7.856;2022-08-04T12:45:33;2.97;;;0.90;;
5555;SDS011;2801;50.972;7.856;2022-08-04T12:48:06;2.70;;;1.40;;
5555;SDS011;2801;50.972;7.856;2022-08-04T12:50:35;1.42;;;1.13;;
5555;SDS011;2801;50.972;7.856;2022-08-04T12:53:10;3.08;;;1.10;;
5555;SDS011;2801;50.972;7.856;2022-08-04T12:55:57;2.47;;;1.10;;
5555;SDS011;2801;50.972;7.856;2022-08-04T12:58:28;1.75;;;1.20;;
5555;SDS011;2801;50.972;7.856;2022-08-04T13:01:19;3.35;;;1.20;;
5555;SDS011;2801;50.972;7.856;2022-08-04T13:06:41;1.95;;;1.40;;
5555;SDS011;2801;50.972;7.856;2022-08-04T13:09:12;1.90;;;1.00;;
5555;SDS011;2801;50.972;7.856;2022-08-04T13:11:49;1.98;;;1.35;;
5555;SDS011;2801;50.972;7.856;2022-08-04T13:14:20;6.47;;;1.30;;
5555;SDS011;2801;50.972;7.856;2022-08-04T13:16:57;1.73;;;1.50;;
5555;SDS011;2801;50.972;7.856;2022-08-04T13:19:26;2.13;;;1.40;;
5555;SDS011;2801;50.972;7.856;2022-08-04T13:21:56;5.30;;;1.20;;
5555;SDS011;2801;50.972;7.856;2022-08-04T13:24:28;2.75;;;1.00;;
5555;SDS011;2801;50.972;7.856;2022-08-04T13:27:19;1.80;;;0.93;;
5555;SDS011;2801;50.972;7.856;2022-08-04T13:29:48;1.40;;;1.00;;
5555;SDS011;2801;50.972;7.856;2022-08-04T13:32:28;2.67;;;1.25;;
5555;SDS011;2801;50.972;7.856;2022-08-04T13:34:59;2.05;;;1.08;;
5555;SDS011;2801;50.972;7.856;2022-08-04T13:37:34;6.07;;;1.40;;
5555;SDS011;2801;50.972;7.856;2022-08-04T13:40:05;4.45;;;1.00;;
5555;SDS011;2801;50.972;7.856;2022-08-04T13:42:36;6.80;;;1.52;;
5555;SDS011;2801;50.972;7.856;2022-08-04T13:45:06;3.80;;;1.40;;
5555;SDS011;2801;50.972;7.856;2022-08-04T13:47:35;2.42;;;1.10;;
5555;SDS011;2801;50.972;7.856;2022-08-04T13:50:16;3.22;;;1.25;;
5555;SDS011;2801;50.972;7.856;2022-08-04T13:52:50;3.70;;;1.33;;
5555;SDS011;2801;50.972;7.856;2022-08-04T13:55:32;2.47;;;1.30;;
5555;SDS011;2801;50.972;7.856;2022-08-04T13:58:04;2.53;;;1.40;;
5555;SDS011;2801;50.972;7.856;2022-08-04T14:00:46;3.28;;;1.42;;
5555;SDS011;2801;50.972;7.856;2022-08-04T14:03:39;2.80;;;1.30;;
5555;SDS011;2801;50.972;7.856;2022-08-04T14:06:19;2.50;;;1.30;;
5555;SDS011;2801;50.972;7.856;2022-08-04T14:08:54;2.05;;;1.40;;
5555;SDS011;2801;50.972;7.856;2022-08-04T14:11:32;3.50;;;1.30;;
5555;SDS011;2801;50.972;7.856;2022-08-04T14:30:30;3.15;;;1.40;;
5555;SDS011;2801;50.972;7.856;2022-08-04T14:33:06;2.65;;;1.33;;
5555;SDS011;2801;50.972;7.856;2022-08-04T14:35:56;2.25;;;1.20;;
5555;SDS011;2801;50.972;7.856;2022-08-04T14:38:50;1.63;;;1.30;;
5555;SDS011;2801;50.972;7.856;2022-08-04T14:41:26;2.10;;;1.30;;
5555;SDS011;2801;50.972;7.856;2022-08-04T14:43:58;2.17;;;1.10;;
5555;SDS011;2801;50.972;7.856;2022-08-04T14:46:28;3.00;;;1.27;;
5555;SDS011;2801;50.972;7.856;2022-08-04T14:49:09;4.32;;;1.50;;
5555;SDS011;2801;50.972;7.856;2022-08-04T14:51:41;2.92;;;1.13;;
5555;SDS011;2801;50.972;7.856;2022-08-04T14:54:12;3.33;;;1.70;;
5555;SDS011;2801;50.972;7.856;2022-08-04T14:56:50;3.40;;;1.35;;
5555;SDS011;2801;50.972;7.856;2022-08-04T14:59:21;1.73;;;1.35;;
5555;SDS011;2801;50.972;7.856;2022-08-04T15:01:50;2.97;;;1.50;;
5555;SDS011;2801;50.972;7.856;2022-08-04T15:04:26;2.15;;;1.50;;
5555;SDS011;2801;50.972;7.856;2022-08-04T15:06:56;4.55;;;1.58;;
5555;SDS011;2801;50.972;7.856;2022-08-04T15:09:24;2.70;;;1.58;;
5555;SDS011;2801;50.972;7.856;2022-08-04T15:11:52;3.80;;;1.60;;
5555;SDS011;2801;50.972;7.856;2022-08-04T15:14:20;3.42;;;1.55;;
5555;SDS011;2801;50.972;7.856;2022-08-04T15:17:03;2.95;;;1.50;;
5555;SDS011;2801;50.972;7.856;2022-08-04T15:19:37;1.58;;;1.33;;
5555;SDS011;2801;50.972;7.856;2022-08-04T15:22:05;5.57;;;1.60;;
5555;SDS011;2801;50.972;7.856;2022-08-04T15:24:51;1.80;;;1.23;;
5555;SDS011;2801;50.972;7.856;2022-08-04T15:27:22;3.40;;;1.77;;
5555;SDS011;2801;50.972;7.856;2022-08-04T15:30:07;2.75;;;1.48;;
5555;SDS011;2801;50.972;7.856;2022-08-04T15:33:13;4.30;;;1.50;;
5555;SDS011;2801;50.972;7.856;2022-08-04T15:35:47;4.68;;;1.75;;
5555;SDS011;2801;50.972;7.856;2022-08-04T15:38:25;3.20;;;1.92;;
5555;SDS011;2801;50.972;7.856;2022-08-04T15:41:04;2.85;;;1.77;;
5555;SDS011;2801;50.972;7.856;2022-08-04T15:43:59;3.80;;;1.90;;
5555;SDS011;2801;50.972;7.856;2022-08-04T15:49:28;4.60;;;2.10;;
5555;SDS011;2801;50.972;7.856;2022-08-04T15:51:59;4.03;;;2.10;;
5555;SDS011;2801;50.972;7.856;2022-08-04T15:54:37;6.13;;;2.75;;
5555;SDS011;2801;50.972;7.856;2022-08-04T15:57:17;4.25;;;1.90;;
5555;SDS011;2801;50.972;7.856;2022-08-04T16:00:25;4.03;;;2.15;;
5555;SDS011;2801;50.972;7.856;2022-08-04T16:02:53;3.13;;;1.95;;
5555;SDS011;2801;50.972;7.856;2022-08-04T16:08:07;3.15;;;2.17;;
5555;SDS011;2801;50.972;7.856;2022-08-04T16:10:39;5.00;;;2.33;;
5555;SDS011;2801;50.972;7.856;2022-08-04T16:13:13;2.85;;;2.22;;
5555;SDS011;2801;50.972;7.856;2022-08-04T16:15:52;4.18;;;2.10;;
5555;SDS011;2801;50.972;7.856;2022-08-04T16:21:00;5.25;;;2.17;;
5555;SDS011;2801;50.972;7.856;2022-08-04T16:29:23;3.30;;;2.10;;
5555;SDS011;2801;50.972;7.856;2022-08-04T16:37:42;5.30;;;2.38;;
5555;SDS011;2801;50.972;7.856;2022-08-04T16:43:07;3.50;;;2.05;;
5555;SDS011;2801;50.972;7.856;2022-08-04T16:45:56;3.72;;;2.20;;
5555;SDS011;2801;50.972;7.856;2022-08-04T16:48:25;6.05;;;2.47;;
5555;SDS011;2801;50.972;7.856;2022-08-04T16:51:04;3.28;;;1.98;;
5555;SDS011;2801;50.972;7.856;2022-08-04T16:53:40;4.72;;;2.42;;
5555;SDS011;2801;50.972;7.856;2022-08-04T16:56:30;5.25;;;2.13;;
5555;SDS011;2801;50.972;7.856;2022-08-04T16:59:04;6.32;;;2.35;;
5555;SDS011;2801;50.972;7.856;2022-08-04T17:01:37;9.15;;;2.35;;
5555;SDS011;2801;50.972;7.856;2022-08-04T17:04:15;6.38;;;2.45;;
5555;SDS011;2801;50.972;7.856;2022-08-04T17:06:43;4.18;;;2.30;;
5555;SDS011;2801;50.972;7.856;2022-08-04T17:09:15;6.25;;;2.50;;
5555;SDS011;2801;50.972;7.856;2022-08-04T17:11:46;5.80;;;2.30;;
5555;SDS011;2801;50.972;7.856;2022-08-04T17:14:15;4.35;;;2.42;;
5555;SDS011;2801;50.972;7.856;2022-08-04T17:16:58;6.05;;;2.40;;
5555;SDS011;2801;50.972;7.856;2022-08-04T17:19:27;6.78;;;2.50;;
5555;SDS011;2801;50.972;7.856;2022-08-04T17:21:55;5.15;;;2.25;;
5555;SDS011;2801;50.972;7.856;2022-08-04T17:24:31;3.78;;;2.45;;
5555;SDS011;2801;50.972;7.856;2022-08-04T17:27:00;6.68;;;2.20;;
5555;SDS011;2801;50.972;7.856;2022-08-04T17:29:29;7.18;;;2.40;;
5555;SDS011;2801;50.972;7.856;2022-08-04T17:32:16;3.47;;;2.30;;
5555;SDS011;2801;50.972;7.856;2022-08-04T17:34:47;4.32;;;2.00;;
5555;SDS011;2801;50.972;7.856;2022-08-04T17:37:16;2.53;;;1.60;;
5555;SDS011;2801;50.972;7.856;2022-08-04T17:42:48;6.72;;;1.70;;
5555;SDS011;2801;50.972;7.856;2022-08-04T17:45:26;7.32;;;1.80;;
5555;SDS011;2801;50.972;7.856;2022-08-04T17:48:16;5.55;;;1.90;;
5555;SDS011;2801;50.972;7.856;2022-08-04T17:50:50;4.55;;;1.80;;
5555;SDS011;2801;50.972;7.856;2022-08-04T17:53:17;2.47;;;1.77;;
5555;SDS011;2801;50.972;7.856;2022-08-04T17:56:35;1.98;;;1.52;;
5555;SDS011;2801;50.972;7.856;2022-08-04T18:02:08;4.03;;;1.73;;
5555;SDS011;2801;50.972;7.856;2022-08-04T18:07:35;2.75;;;1.70;;
5555;SDS011;2801;50.972;7.856;2022-08-04T18:10:38;3.15;;;2.05;;
5555;SDS011;2801;50.972;7.856;2022-08-04T18:13:21;4.47;;;1.88;;
5555;SDS011;2801;50.972;7.856;2022-08-04T18:16:02;4.18;;;1.75;;
5555;SDS011;2801;50.972;7.856;2022-08-04T18:18:30;3.35;;;1.95;;
5555;SDS011;2801;50.972;7.856;2022-08-04T18:20:58;4.40;;;1.95;;
5555;SDS011;2801;50.972;7.856;2022-08-04T18:23:29;2.85;;;1.80;;
5555;SDS011;2801;50.972;7.856;2022-08-04T18:25:59;2.15;;;1.90;;
5555;SDS011;2801;50.972;7.856;2022-08-04T18:28:29;3.25;;;1.88;;
5555;SDS011;2801;50.972;7.856;2022-08-04T18:30:59;3.33;;;1.73;;
5555;SDS011;2801;50.972;7.856;2022-08-04T18:33:27;4.30;;;1.90;;
5555;SDS011;2801;50.972;7.856;2022-08-04T18:36:07;3.42;;;1.90;;
5555;SDS011;2801;50.972;7.856;2022-08-04T18:38:56;3.35;;;2.00;;
5555;SDS011;2801;50.972;7.856;2022-08-04T18:41:40;2.92;;;1.90;;
5555;SDS011;2801;50.972;7.856;2022-08-04T18:44:29;2.88;;;2.08;;
5555;SDS011;2801;50.972;7.856;2022-08-04T18:46:57;3.15;;;1.92;;
5555;SDS011;2801;50.972;7.856;2022-08-04T18:49:45;3.53;;;2.17;;
5555;SDS011;2801;50.972;7.856;2022-08-04T18:52:32;2.55;;;1.65;;
5555;SDS011;2801;50.972;7.856;2022-08-04T18:54:59;3.75;;;2.17;;
5555;SDS011;2801;50.972;7.856;2022-08-04T18:57:27;4.85;;;1.90;;
5555;SDS011;2801;50.972;7.856;2022-08-04T19:00:16;5.60;;;2.00;;
5555;SDS011;2801;50.972;7.856;2022-08-04T19:02:45;5.95;;;2.83;;
5555;SDS011;2801;50.972;7.856;2022-08-04T19:05:12;5.22;;;2.85;;
5555;SDS011;2801;50.972;7.856;2022-08-04T19:07:42;2.70;;;2.10;;
5555;SDS011;2801;50.972;7.856;2022-08-04T19:10:29;4.25;;;2.30;;
5555;SDS011;2801;50.972;7.856;2022-08-04T19:12:56;4.25;;;1.90;;
5555;SDS011;2801;50.972;7.856;2022-08-04T19:15:24;3.75;;;2.15;;
5555;SDS011;2801;50.972;7.856;2022-08-04T19:17:59;4.85;;;2.22;;
5555;SDS011;2801;50.972;7.856;2022-08-04T19:20:32;3.28;;;2.17;;
5555;SDS011;2801;50.972;7.856;2022-08-04T19:23:02;3.25;;;2.53;;
5555;SDS011;2801;50.972;7.856;2022-08-04T19:25:49;7.30;;;2.55;;
5555;SDS011;2801;50.972;7.856;2022-08-04T19:28:28;2.92;;;2.30;;
5555;SDS011;2801;50.972;7.856;2022-08-04T19:31:01;4.15;;;1.83;;
5555;SDS011;2801;50.972;7.856;2022-08-04T19:33:34;3.67;;;2.35;;
5555;SDS011;2801;50.972;7.856;2022-08-04T19:36:24;3.67;;;2.10;;
5555;SDS011;2801;50.972;7.856;2022-08-04T19:38:57;4.47;;;2.08;;
5555;SDS011;2801;50.972;7.856;2022-08-04T19:41:52;4.75;;;2.22;;
5555;SDS011;2801;50.972;7.856;2022-08-04T19:44:31;3.10;;;2.22;;
5555;SDS011;2801;50.972;7.856;2022-08-04T19:46:58;4.78;;;2.05;;
5555;SDS011;2801;50.972;7.856;2022-08-04T19:49:25;5.60;;;2.50;;
5555;SDS011;2801;50.972;7.856;2022-08-04T19:52:13;7.00;;;2.42;;
5555;SDS011;2801;50.972;7.856;2022-08-04T19:54:59;4.38;;;2.55;;
5555;SDS011;2801;50.972;7.856;2022-08-04T19:57:36;5.72;;;2.83;;
5555;SDS011;2801;50.972;7.856;2022-08-04T20:00:12;5.18;;;2.40;;
5555;SDS011;2801;50.972;7.856;2022-08-04T20:02:40;3.65;;;2.47;;
5555;SDS011;2801;50.972;7.856;2022-08-04T20:05:07;4.95;;;3.40;;
5555;SDS011;2801;50.972;7.856;2022-08-04T20:07:34;4.05;;;2.50;;
5555;SDS011;2801;50.972;7.856;2022-08-04T20:10:05;3.40;;;2.70;;
5555;SDS011;2801;50.972;7.856;2022-08-04T20:12:38;5.82;;;3.50;;
5555;SDS011;2801;50.972;7.856;2022-08-04T20:15:07;3.35;;;2.47;;
5555;SDS011;2801;50.972;7.856;2022-08-04T20:17:40;3.58;;;2.75;;
5555;SDS011;2801;50.972;7.856;2022-08-04T20:20:27;7.70;;;3.30;;
5555;SDS011;2801;50.972;7.856;2022-08-04T20:22:54;5.03;;;2.45;;
5555;SDS011;2801;50.972;7.856;2022-08-04T20:25:21;7.22;;;3.00;;
5555;SDS011;2801;50.972;7.856;2022-08-04T20:28:04;4.78;;;2.65;;
5555;SDS011;2801;50.972;7.856;2022-08-04T20:30:31;5.63;;;2.75;;
5555;SDS011;2801;50.972;7.856;2022-08-04T20:32:58;6.07;;;2.97;;
5555;SDS011;2801;50.972;7.856;2022-08-04T20:35:29;6.50;;;3.20;;